Time;durP1;ratioP1;P1;durP2;ratioP2;P2;SDS_P1;SDS_P2;PMS_P1;PMS_P2;Temp;Humidity;BMP_temperature;BMP_pressure;BME280_temperature;BME280_humidity;BME280_pressure;Samples;Min_cycle;Max_cycle;Signal;HPM_P1;HPM_P2
2024/01/06 00:00:28;;;;;;;0.90;0.90;;;;;;;;;;5038304;28;20213;-79
2024/01/06 00:02:55;;;;;;;2.03;1.35;;;;;;;;;;5037492;28;20445;-80
2024/01/06 00:05:23;;;;;;;1.80;1.25;;;;;;;;;;5039128;28;20203;-80
2024/01/06 00:07:50;;;;;;;1.77;1.25;;;;;;;;;;5037344;28;20604;-80
2024/01/06 00:10:18;;;;;;;1.38;1.27;;;;;;;;;;5037172;28;20212;-79
2024/01/06 00:12:45;;;;;;;1.13;0.95;;;;;;;;;;5037387;28;20221;-80
2024/01/06 00:15:13;;;;;;;3.08;1.50;;;;;;;;;;5037235;28;20242;-80
2024/01/06 00:17:42;;;;;;;0.90;0.90;;;;;;;;;;5037662;28;20632;-79
2024/01/06 00:20:10;;;;;;;1.75;1.38;;;;;;;;;;5036315;28;20210;-79
2024/01/06 00:22:38;;;;;;;1.10;1.00;;;;;;;;;;5037243;28;20285;-80
2024/01/06 00:25:06;;;;;;;1.63;0.77;;;;;;;;;;5037307;28;20297;-80
2024/01/06 00:27:34;;;;;;;1.45;1.30;;;;;;;;;;5032784;28;20320;-80
2024/01/06 00:30:01;;;;;;;1.35;0.93;;;;;;;;;;5035283;28;20624;-80
2024/01/06 00:32:29;;;;;;;1.27;1.00;;;;;;;;;;5036776;28;20198;-79
2024/01/06 00:34:58;;;;;;;0.80;0.80;;;;;;;;;;5036953;28;20217;-80
2024/01/06 00:37:25;;;;;;;0.75;0.75;;;;;;;;;;5035335;28;20760;-79
2024/01/06 00:39:52;;;;;;;0.90;0.90;;;;;;;;;;5036251;28;20289;-80
2024/01/06 00:42:20;;;;;;;0.75;0.75;;;;;;;;;;5034946;28;20213;-80
2024/01/06 00:44:47;;;;;;;1.17;1.08;;;;;;;;;;5036888;28;20298;-80
2024/01/06 00:47:15;;;;;;;1.30;1.20;;;;;;;;;;5036422;28;20230;-80
2024/01/06 00:49:42;;;;;;;0.90;0.90;;;;;;;;;;5036484;28;20268;-80
2024/01/06 00:52:11;;;;;;;1.85;1.20;;;;;;;;;;5036455;28;20211;-79
2024/01/06 00:54:38;;;;;;;1.77;1.30;;;;;;;;;;5035981;28;20853;-80
2024/01/06 00:57:06;;;;;;;2.00;1.13;;;;;;;;;;5036550;28;20236;-80
2024/01/06 00:59:34;;;;;;;1.33;0.90;;;;;;;;;;5030426;28;20572;-80
2024/01/06 01:02:01;;;;;;;1.85;1.30;;;;;;;;;;5034228;28;20290;-81
2024/01/06 01:04:29;;;;;;;1.65;1.05;;;;;;;;;;5035040;28;20199;-80
2024/01/06 01:06:56;;;;;;;1.27;0.90;;;;;;;;;;5036228;28;20691;-80
2024/01/06 01:09:25;;;;;;;0.90;0.90;;;;;;;;;;5035560;28;20211;-79
2024/01/06 01:11:52;;;;;;;1.05;1.00;;;;;;;;;;5036390;28;20241;-80
2024/01/06 01:14:20;;;;;;;2.25;1.65;;;;;;;;;;5036760;28;20743;-80
2024/01/06 01:16:47;;;;;;;1.42;1.20;;;;;;;;;;5036451;28;20654;-79
2024/01/06 01:19:15;;;;;;;1.40;1.30;;;;;;;;;;5035961;28;20671;-80
2024/01/06 01:21:43;;;;;;;1.48;1.30;;;;;;;;;;5036791;28;20266;-80
2024/01/06 01:24:10;;;;;;;0.98;0.90;;;;;;;;;;5036379;28;20642;-80
2024/01/06 01:26:39;;;;;;;2.35;1.52;;;;;;;;;;5036582;28;20702;-80
2024/01/06 01:29:06;;;;;;;1.73;1.10;;;;;;;;;;5036167;28;20241;-80
2024/01/06 01:31:34;;;;;;;1.30;1.13;;;;;;;;;;5036228;28;20658;-79
2024/01/06 01:34:01;;;;;;;1.92;1.77;;;;;;;;;;5036309;28;20285;-80
2024/01/06 01:36:29;;;;;;;0.90;0.90;;;;;;;;;;5036417;28;20642;-79
2024/01/06 01:38:56;;;;;;;1.10;1.00;;;;;;;;;;5035592;28;20206;-79
2024/01/06 01:41:23;;;;;;;1.48;1.20;;;;;;;;;;5036143;28;20684;-80
2024/01/06 01:43:57;;;;;;;1.15;1.05;;;;;;;;;;5036047;28;20213;-79
2024/01/06 01:46:26;;;;;;;1.08;0.98;;;;;;;;;;5036534;28;20659;-80
2024/01/06 01:48:54;;;;;;;0.95;0.95;;;;;;;;;;5035196;28;20226;-80
2024/01/06 01:51:22;;;;;;;1.30;1.15;;;;;;;;;;5036477;28;20261;-79
2024/01/06 01:53:50;;;;;;;3.20;1.02;;;;;;;;;;5036019;28;20557;-80
2024/01/06 01:56:18;;;;;;;1.20;1.10;;;;;;;;;;5038198;28;20207;-80
2024/01/06 01:58:45;;;;;;;2.58;1.10;;;;;;;;;;5035595;28;20199;-79
2024/01/06 02:01:14;;;;;;;1.15;1.05;;;;;;;;;;5034769;28;20213;-80
2024/01/06 02:03:44;;;;;;;0.93;0.93;;;;;;;;;;5034656;28;20198;-80
2024/01/06 02:06:12;;;;;;;1.67;1.27;;;;;;;;;;5034306;28;20257;-80
2024/01/06 02:08:39;;;;;;;2.45;1.50;;;;;;;;;;5035998;28;20230;-80
2024/01/06 02:11:06;;;;;;;2.38;1.33;;;;;;;;;;5036364;28;20217;-80
2024/01/06 02:13:36;;;;;;;1.00;1.00;;;;;;;;;;5032118;28;20206;-79
2024/01/06 02:16:04;;;;;;;1.50;1.40;;;;;;;;;;5036384;28;20565;-80
2024/01/06 02:18:33;;;;;;;1.63;1.40;;;;;;;;;;5035685;28;20305;-80
2024/01/06 02:21:02;;;;;;;0.90;0.90;;;;;;;;;;5035699;28;20202;-79
2024/01/06 02:23:31;;;;;;;1.00;0.98;;;;;;;;;;5036011;28;20203;-79
2024/01/06 02:25:59;;;;;;;1.00;1.00;;;;;;;;;;5035998;28;20209;-80
2024/01/06 02:28:26;;;;;;;2.63;1.30;;;;;;;;;;5035349;28;20234;-80
2024/01/06 02:30:54;;;;;;;1.13;1.02;;;;;;;;;;5036222;28;20821;-80
2024/01/06 02:33:24;;;;;;;0.95;0.88;;;;;;;;;;5035554;28;20210;-79
2024/01/06 02:35:51;;;;;;;1.23;1.10;;;;;;;;;;5036226;28;20229;-80
2024/01/06 02:38:18;;;;;;;1.27;1.10;;;;;;;;;;5035343;28;20222;-80
2024/01/06 02:40:47;;;;;;;1.77;1.33;;;;;;;;;;5036221;28;20202;-80
2024/01/06 02:43:15;;;;;;;1.65;1.55;;;;;;;;;;5036452;28;20211;-81
2024/01/06 02:45:42;;;;;;;1.45;0.90;;;;;;;;;;5036913;28;20198;-80
2024/01/06 02:48:10;;;;;;;1.92;1.27;;;;;;;;;;5035507;28;20317;-80
2024/01/06 02:50:37;;;;;;;1.90;1.52;;;;;;;;;;5036350;28;20209;-81
2024/01/06 02:53:05;;;;;;;3.03;1.92;;;;;;;;;;5035350;28;20294;-81
2024/01/06 02:55:32;;;;;;;0.95;0.95;;;;;;;;;;5035991;28;20207;-80
2024/01/06 02:58:01;;;;;;;2.55;1.67;;;;;;;;;;5036642;28;20324;-80
2024/01/06 03:00:29;;;;;;;1.48;1.38;;;;;;;;;;5034943;28;20244;-80
2024/01/06 03:02:56;;;;;;;1.35;1.25;;;;;;;;;;5036163;28;20283;-81
2024/01/06 03:05:24;;;;;;;1.60;1.27;;;;;;;;;;5035892;28;20203;-80
2024/01/06 03:07:51;;;;;;;1.05;1.00;;;;;;;;;;5035791;28;20600;-80
2024/01/06 03:10:19;;;;;;;2.28;1.10;;;;;;;;;;5033362;28;20233;-80
2024/01/06 03:12:46;;;;;;;2.47;1.20;;;;;;;;;;5035644;28;20309;-80
2024/01/06 03:15:15;;;;;;;1.00;0.95;;;;;;;;;;5035637;28;20297;-81
2024/01/06 03:17:42;;;;;;;1.35;1.27;;;;;;;;;;5035752;28;20269;-80
2024/01/06 03:20:11;;;;;;;1.25;1.10;;;;;;;;;;5034795;28;20209;-80
2024/01/06 03:22:38;;;;;;;0.93;0.90;;;;;;;;;;5035866;28;20214;-81
2024/01/06 03:25:07;;;;;;;1.20;0.90;;;;;;;;;;5034994;28;20206;-81
2024/01/06 03:27:35;;;;;;;1.20;1.10;;;;;;;;;;5031529;28;20310;-80
2024/01/06 03:30:03;;;;;;;1.27;1.20;;;;;;;;;;5032842;28;20312;-80
2024/01/06 03:32:32;;;;;;;1.70;1.48;;;;;;;;;;5034773;28;20213;-81
2024/01/06 03:34:59;;;;;;;1.40;1.30;;;;;;;;;;5035151;28;20220;-81
2024/01/06 03:37:26;;;;;;;1.92;1.48;;;;;;;;;;5035320;28;20241;-81
2024/01/06 03:39:55;;;;;;;2.13;1.08;;;;;;;;;;5035064;28;20213;-81
2024/01/06 03:42:22;;;;;;;1.33;1.23;;;;;;;;;;5035737;28;20214;-80
2024/01/06 03:44:50;;;;;;;1.48;0.98;;;;;;;;;;5035020;28;20297;-80
2024/01/06 03:47:17;;;;;;;1.25;1.15;;;;;;;;;;5035011;28;20431;-80
2024/01/06 03:49:46;;;;;;;1.00;1.00;;;;;;;;;;5034964;28;20226;-80
2024/01/06 03:52:14;;;;;;;0.98;0.98;;;;;;;;;;5035117;28;20225;-80
2024/01/06 03:54:42;;;;;;;0.80;0.80;;;;;;;;;;5035036;28;20217;-80
2024/01/06 03:57:09;;;;;;;0.95;0.95;;;;;;;;;;5035015;28;20261;-81
2024/01/06 03:59:37;;;;;;;1.60;0.85;;;;;;;;;;5027595;28;20209;-81
2024/01/06 04:02:04;;;;;;;1.25;1.15;;;;;;;;;;5033510;28;20217;-80
2024/01/06 04:04:32;;;;;;;2.58;1.50;;;;;;;;;;5035175;28;20238;-80
2024/01/06 04:07:01;;;;;;;1.33;1.23;;;;;;;;;;5034782;28;20313;-81
2024/01/06 04:09:28;;;;;;;1.13;1.10;;;;;;;;;;5034882;28;20249;-80
2024/01/06 04:11:56;;;;;;;0.88;0.77;;;;;;;;;;5038752;28;20218;-81
2024/01/06 04:14:23;;;;;;;1.00;1.00;;;;;;;;;;5038695;28;20297;-80
2024/01/06 04:16:52;;;;;;;0.90;0.90;;;;;;;;;;5038712;28;20237;-80
2024/01/06 04:19:20;;;;;;;0.88;0.88;;;;;;;;;;5037376;28;20207;-80
2024/01/06 04:21:48;;;;;;;0.95;0.95;;;;;;;;;;5038795;28;20206;-81
2024/01/06 04:24:17;;;;;;;1.10;1.00;;;;;;;;;;5039005;28;20216;-80
2024/01/06 04:26:45;;;;;;;1.23;1.10;;;;;;;;;;5037700;28;20316;-81
2024/01/06 04:29:13;;;;;;;1.00;1.00;;;;;;;;;;5038251;28;20577;-80
2024/01/06 04:31:42;;;;;;;2.05;1.58;;;;;;;;;;5038813;28;20241;-80
2024/01/06 04:34:09;;;;;;;1.67;1.40;;;;;;;;;;5038861;28;20297;-80
2024/01/06 04:36:37;;;;;;;1.85;1.52;;;;;;;;;;5038437;28;20281;-80
2024/01/06 04:39:04;;;;;;;2.60;1.48;;;;;;;;;;5036408;28;20309;-80
2024/01/06 04:41:33;;;;;;;1.10;1.10;;;;;;;;;;5038278;28;20289;-80
2024/01/06 04:44:00;;;;;;;1.23;1.10;;;;;;;;;;5038576;28;20204;-80
2024/01/06 04:46:30;;;;;;;1.67;1.42;;;;;;;;;;5034756;28;20206;-80
2024/01/06 04:48:57;;;;;;;2.10;1.38;;;;;;;;;;5037954;28;20230;-81
2024/01/06 04:51:25;;;;;;;1.50;1.40;;;;;;;;;;5034245;28;20706;-81
2024/01/06 04:53:52;;;;;;;3.40;1.38;;;;;;;;;;5038170;28;20265;-80
2024/01/06 04:56:20;;;;;;;3.22;2.25;;;;;;;;;;5035834;28;20301;-80
2024/01/06 04:58:49;;;;;;;2.88;1.58;;;;;;;;;;5038268;28;20574;-80
2024/01/06 05:01:16;;;;;;;1.42;1.23;;;;;;;;;;5037631;28;20202;-80
2024/01/06 05:03:44;;;;;;;2.20;2.00;;;;;;;;;;5038350;28;20293;-81
2024/01/06 05:06:11;;;;;;;1.17;1.08;;;;;;;;;;5037069;28;20298;-81
2024/01/06 05:08:44;;;;;;;1.10;1.08;;;;;;;;;;5036960;28;20297;-81
2024/01/06 05:11:12;;;;;;;1.20;1.10;;;;;;;;;;5038103;28;20226;-80
2024/01/06 05:13:40;;;;;;;1.08;1.08;;;;;;;;;;5037456;28;20202;-80
2024/01/06 05:16:09;;;;;;;1.00;1.00;;;;;;;;;;5038846;28;20213;-81
2024/01/06 05:18:37;;;;;;;1.20;1.10;;;;;;;;;;5033417;28;20640;-80
2024/01/06 05:21:05;;;;;;;1.20;1.10;;;;;;;;;;5035421;28;20205;-80
2024/01/06 05:23:32;;;;;;;1.50;1.40;;;;;;;;;;5035946;28;20203;-80
2024/01/06 05:26:00;;;;;;;0.98;0.98;;;;;;;;;;5037343;28;20213;-80
2024/01/06 05:28:27;;;;;;;2.22;1.17;;;;;;;;;;5033843;28;20325;-80
2024/01/06 05:30:54;;;;;;;1.20;1.10;;;;;;;;;;5036644;28;20218;-81
2024/01/06 05:33:23;;;;;;;1.33;1.23;;;;;;;;;;5036942;28;20203;-80
2024/01/06 05:35:51;;;;;;;1.42;1.33;;;;;;;;;;5036954;28;20202;-80
2024/01/06 05:38:18;;;;;;;4.25;1.30;;;;;;;;;;5036169;28;20230;-80
2024/01/06 05:40:45;;;;;;;1.65;1.30;;;;;;;;;;5036696;28;20293;-80
2024/01/06 05:43:13;;;;;;;1.20;1.02;;;;;;;;;;5037001;28;20207;-80
2024/01/06 05:45:41;;;;;;;1.92;1.83;;;;;;;;;;5037273;28;20298;-81
2024/01/06 05:48:10;;;;;;;1.40;1.10;;;;;;;;;;5037233;28;20226;-80
2024/01/06 05:50:40;;;;;;;1.40;1.30;;;;;;;;;;5033427;28;20233;-80
2024/01/06 05:53:08;;;;;;;2.50;1.73;;;;;;;;;;5037350;28;20247;-80
2024/01/06 05:55:35;;;;;;;2.08;1.23;;;;;;;;;;5036328;28;20237;-81
2024/01/06 05:58:03;;;;;;;1.33;1.25;;;;;;;;;;5034386;28;20289;-80
2024/01/06 06:00:31;;;;;;;2.08;1.63;;;;;;;;;;5034975;28;20293;-80
2024/01/06 06:02:58;;;;;;;1.60;1.50;;;;;;;;;;5039299;28;20206;-80
2024/01/06 06:05:26;;;;;;;1.35;1.25;;;;;;;;;;5034410;28;20298;-81
2024/01/06 06:07:55;;;;;;;2.28;1.60;;;;;;;;;;5034660;28;20249;-80
2024/01/06 06:10:22;;;;;;;2.15;1.40;;;;;;;;;;5036933;28;20226;-80
2024/01/06 06:12:50;;;;;;;1.60;1.50;;;;;;;;;;5036959;28;20232;-80
2024/01/06 06:15:17;;;;;;;2.50;1.92;;;;;;;;;;5036304;28;20293;-79
2024/01/06 06:17:45;;;;;;;1.77;1.67;;;;;;;;;;5036140;28;20230;-81
2024/01/06 06:20:13;;;;;;;1.80;1.60;;;;;;;;;;5036645;28;20202;-81
2024/01/06 06:22:40;;;;;;;2.13;1.40;;;;;;;;;;5036293;28;20225;-80
2024/01/06 06:25:10;;;;;;;1.95;1.60;;;;;;;;;;5035932;28;20213;-80
2024/01/06 06:27:39;;;;;;;2.38;1.60;;;;;;;;;;5036944;28;20285;-81
2024/01/06 06:30:08;;;;;;;1.48;1.38;;;;;;;;;;5034601;28;20202;-79
2024/01/06 06:32:36;;;;;;;1.38;1.27;;;;;;;;;;5034849;28;20210;-80
2024/01/06 06:35:04;;;;;;;1.52;1.42;;;;;;;;;;5032025;28;20285;-81
2024/01/06 06:37:31;;;;;;;1.58;1.48;;;;;;;;;;5034363;28;20313;-79
2024/01/06 06:39:59;;;;;;;1.80;1.67;;;;;;;;;;5035344;28;20202;-80
2024/01/06 06:42:27;;;;;;;2.00;1.80;;;;;;;;;;5035056;28;20230;-79
2024/01/06 06:44:55;;;;;;;1.42;1.33;;;;;;;;;;5031664;28;20294;-80
2024/01/06 06:47:22;;;;;;;1.40;1.25;;;;;;;;;;5037342;28;20233;-79
2024/01/06 06:49:50;;;;;;;1.58;1.50;;;;;;;;;;5035444;28;20290;-80
2024/01/06 06:52:18;;;;;;;1.17;1.08;;;;;;;;;;5035845;28;20260;-80
2024/01/06 06:54:45;;;;;;;1.70;1.27;;;;;;;;;;5034099;28;20596;-79
2024/01/06 06:57:12;;;;;;;1.33;1.23;;;;;;;;;;5034794;28;20229;-80
2024/01/06 06:59:41;;;;;;;1.30;1.20;;;;;;;;;;5029370;28;20209;-80
2024/01/06 07:02:09;;;;;;;1.85;1.60;;;;;;;;;;5035867;28;20253;-80
2024/01/06 07:04:36;;;;;;;1.23;1.20;;;;;;;;;;5034934;28;20319;-79
2024/01/06 07:07:04;;;;;;;1.42;1.33;;;;;;;;;;5037741;28;20588;-80
2024/01/06 07:09:32;;;;;;;1.88;1.33;;;;;;;;;;5034996;28;20210;-80
2024/01/06 07:11:59;;;;;;;1.27;1.13;;;;;;;;;;5035021;28;20309;-80
2024/01/06 07:14:26;;;;;;;1.23;1.23;;;;;;;;;;5034808;28;20273;-80
2024/01/06 07:16:55;;;;;;;1.00;1.00;;;;;;;;;;5034718;28;20218;-79
2024/01/06 07:19:23;;;;;;;1.13;1.10;;;;;;;;;;5032980;28;20206;-80
2024/01/06 07:21:50;;;;;;;1.40;1.23;;;;;;;;;;5035237;28;20706;-79
2024/01/06 07:24:18;;;;;;;1.40;1.30;;;;;;;;;;5034786;28;20301;-82
2024/01/06 07:26:45;;;;;;;1.20;1.10;;;;;;;;;;5034815;28;20241;-80
2024/01/06 07:29:13;;;;;;;1.20;1.20;;;;;;;;;;5035000;28;20293;-82
2024/01/06 07:31:40;;;;;;;1.20;1.10;;;;;;;;;;5035147;28;20308;-81
2024/01/06 07:34:09;;;;;;;1.08;1.00;;;;;;;;;;5036233;28;20302;-81
2024/01/06 07:36:38;;;;;;;1.00;1.00;;;;;;;;;;5035703;28;20308;-80
2024/01/06 07:39:05;;;;;;;1.17;1.13;;;;;;;;;;5033928;28;20210;-81
2024/01/06 07:41:33;;;;;;;1.20;1.10;;;;;;;;;;5035689;28;20289;-82
2024/01/06 07:44:02;;;;;;;1.23;1.20;;;;;;;;;;5035208;28;20314;-81
2024/01/06 07:46:29;;;;;;;1.13;1.10;;;;;;;;;;5039073;28;20202;-81
2024/01/06 07:48:57;;;;;;;1.10;1.00;;;;;;;;;;5039171;28;20206;-81
2024/01/06 07:51:26;;;;;;;1.65;1.55;;;;;;;;;;5040287;28;20724;-81
2024/01/06 07:53:53;;;;;;;1.50;1.40;;;;;;;;;;5038853;28;20581;-81
2024/01/06 07:56:20;;;;;;;1.10;1.00;;;;;;;;;;5038687;28;20273;-81
2024/01/06 07:58:48;;;;;;;1.38;1.23;;;;;;;;;;5038453;28;20198;-80
2024/01/06 08:01:15;;;;;;;0.93;0.93;;;;;;;;;;5038187;28;20210;-80
2024/01/06 08:03:43;;;;;;;1.75;1.38;;;;;;;;;;5035713;28;20289;-80
2024/01/06 08:06:11;;;;;;;1.30;1.20;;;;;;;;;;5036568;28;20798;-80
2024/01/06 08:08:40;;;;;;;1.10;1.10;;;;;;;;;;5038452;28;20209;-81
2024/01/06 08:11:07;;;;;;;1.17;1.17;;;;;;;;;;5037686;28;20213;-80
2024/01/06 08:13:35;;;;;;;1.17;1.10;;;;;;;;;;5038799;28;20242;-81
2024/01/06 08:16:02;;;;;;;1.75;1.33;;;;;;;;;;5038529;28;20587;-79
2024/01/06 08:18:30;;;;;;;0.98;0.98;;;;;;;;;;5037735;28;20254;-81
2024/01/06 08:20:58;;;;;;;1.20;1.20;;;;;;;;;;5038419;28;20209;-80
2024/01/06 08:23:25;;;;;;;1.38;1.27;;;;;;;;;;5038701;28;20206;-80
2024/01/06 08:25:54;;;;;;;1.42;1.33;;;;;;;;;;5037981;28;20264;-81
2024/01/06 08:28:23;;;;;;;1.65;1.55;;;;;;;;;;5035270;28;20292;-81
2024/01/06 08:30:50;;;;;;;1.42;1.33;;;;;;;;;;5038180;28;20202;-80
2024/01/06 08:33:18;;;;;;;2.10;1.30;;;;;;;;;;5037736;28;20246;-81
2024/01/06 08:35:45;;;;;;;2.28;1.85;;;;;;;;;;5038086;28;20199;-81
2024/01/06 08:38:13;;;;;;;1.88;1.50;;;;;;;;;;5038261;28;20244;-81
2024/01/06 08:40:40;;;;;;;1.23;1.20;;;;;;;;;;5034593;28;20209;-81
2024/01/06 08:43:09;;;;;;;1.60;1.50;;;;;;;;;;5038141;28;20234;-80
2024/01/06 08:45:36;;;;;;;1.60;1.50;;;;;;;;;;5038153;28;20210;-80
2024/01/06 08:48:05;;;;;;;1.75;1.65;;;;;;;;;;5035433;28;20226;-81
2024/01/06 08:50:33;;;;;;;1.55;1.45;;;;;;;;;;5037517;28;20206;-81
2024/01/06 08:53:00;;;;;;;1.98;1.60;;;;;;;;;;5037756;28;20290;-81
2024/01/06 08:55:27;;;;;;;1.85;1.63;;;;;;;;;;5037561;28;20216;-81
2024/01/06 08:57:55;;;;;;;1.40;1.30;;;;;;;;;;5036255;28;20218;-81
2024/01/06 09:00:24;;;;;;;1.15;1.13;;;;;;;;;;5035064;28;20206;-81
2024/01/06 09:02:51;;;;;;;1.77;1.23;;;;;;;;;;5035154;28;20217;-81
2024/01/06 09:05:19;;;;;;;1.90;1.73;;;;;;;;;;5034238;28;20206;-80
2024/01/06 09:07:49;;;;;;;1.75;1.40;;;;;;;;;;5037575;28;20233;-81
2024/01/06 09:10:17;;;;;;;2.20;2.05;;;;;;;;;;5037618;28;20581;-81
2024/01/06 09:12:45;;;;;;;3.75;2.60;;;;;;;;;;5036943;28;20313;-80
2024/01/06 09:15:12;;;;;;;2.90;2.60;;;;;;;;;;5036999;28;20313;-81
2024/01/06 09:17:41;;;;;;;1.88;1.75;;;;;;;;;;5037722;28;20226;-80
2024/01/06 09:20:10;;;;;;;2.22;1.90;;;;;;;;;;5037260;28;20237;-80
2024/01/06 09:22:37;;;;;;;2.63;2.22;;;;;;;;;;5037068;28;20275;-80
2024/01/06 09:25:06;;;;;;;2.30;2.05;;;;;;;;;;5034923;28;20719;-80
2024/01/06 09:27:33;;;;;;;4.03;2.33;;;;;;;;;;5037099;28;20776;-81
2024/01/06 09:30:01;;;;;;;2.17;1.98;;;;;;;;;;5036690;28;20206;-80
2024/01/06 09:32:28;;;;;;;1.70;1.60;;;;;;;;;;5036141;28;20238;-80
2024/01/06 09:34:57;;;;;;;1.65;1.55;;;;;;;;;;5036176;28;20229;-80
2024/01/06 09:37:25;;;;;;;2.40;2.08;;;;;;;;;;5036480;28;20333;-80
2024/01/06 09:39:52;;;;;;;2.70;2.50;;;;;;;;;;5035987;28;20204;-81
2024/01/06 09:42:20;;;;;;;2.17;1.98;;;;;;;;;;5036746;28;20649;-81
2024/01/06 09:44:48;;;;;;;2.00;1.80;;;;;;;;;;5037021;28;20206;-81
2024/01/06 09:47:16;;;;;;;1.85;1.75;;;;;;;;;;5036778;28;20888;-81
2024/01/06 09:49:50;;;;;;;2.97;1.63;;;;;;;;;;5036641;28;20282;-81
2024/01/06 09:52:23;;;;;;;3.95;1.58;;;;;;;;;;5036489;28;20291;-80
2024/01/06 09:54:54;;;;;;;2.63;1.70;;;;;;;;;;5037112;28;20208;-81
2024/01/06 09:57:22;;;;;;;3.97;2.10;;;;;;;;;;5036583;28;20288;-81
2024/01/06 09:59:49;;;;;;;1.65;1.55;;;;;;;;;;5036378;28;20199;-80
2024/01/06 10:02:18;;;;;;;2.00;1.88;;;;;;;;;;5033562;28;20217;-81
2024/01/06 10:04:46;;;;;;;4.63;1.70;;;;;;;;;;5039464;28;20230;-80
2024/01/06 10:07:13;;;;;;;1.70;1.60;;;;;;;;;;5036503;28;20227;-81
2024/01/06 10:09:43;;;;;;;1.75;1.65;;;;;;;;;;5035607;28;20225;-80
2024/01/06 10:12:11;;;;;;;1.42;1.33;;;;;;;;;;5036378;28;20225;-80
2024/01/06 10:14:39;;;;;;;1.40;1.30;;;;;;;;;;5036773;28;20590;-81
2024/01/06 10:17:08;;;;;;;1.02;1.02;;;;;;;;;;5036826;28;20245;-80
2024/01/06 10:19:38;;;;;;;2.67;2.15;;;;;;;;;;5036184;28;20225;-80
2024/01/06 10:22:05;;;;;;;1.50;1.40;;;;;;;;;;5034633;28;20207;-80
2024/01/06 10:24:33;;;;;;;1.42;1.33;;;;;;;;;;5035917;28;20209;-81
2024/01/06 10:27:02;;;;;;;2.40;1.40;;;;;;;;;;5035975;28;20226;-81
2024/01/06 10:29:29;;;;;;;1.67;1.58;;;;;;;;;;5035803;28;20301;-80
2024/01/06 10:31:57;;;;;;;1.67;1.58;;;;;;;;;;5036111;28;20270;-81
2024/01/06 10:34:25;;;;;;;2.70;1.98;;;;;;;;;;5036338;28;20321;-80
2024/01/06 10:36:52;;;;;;;3.30;1.50;;;;;;;;;;5036282;28;20602;-80
2024/01/06 10:39:20;;;;;;;1.48;1.38;;;;;;;;;;5035590;28;20202;-80
2024/01/06 10:41:48;;;;;;;2.35;2.08;;;;;;;;;;5036305;28;20207;-80
2024/01/06 10:44:17;;;;;;;1.90;1.80;;;;;;;;;;5036207;28;20716;-80
2024/01/06 10:46:46;;;;;;;3.58;2.08;;;;;;;;;;5033636;28;20332;-81
2024/01/06 10:49:14;;;;;;;3.90;1.92;;;;;;;;;;5036067;28;20210;-80
2024/01/06 10:51:42;;;;;;;2.80;2.50;;;;;;;;;;5036863;28;20232;-81
2024/01/06 10:54:11;;;;;;;4.22;2.10;;;;;;;;;;5035268;28;20232;-81
2024/01/06 10:56:39;;;;;;;4.25;3.28;;;;;;;;;;5036115;28;20240;-80
2024/01/06 10:59:08;;;;;;;2.42;2.22;;;;;;;;;;5035312;28;20695;-80
2024/01/06 11:01:38;;;;;;;2.95;1.55;;;;;;;;;;5036557;28;20217;-81
2024/01/06 11:04:06;;;;;;;1.95;1.65;;;;;;;;;;5034433;28;20217;-80
2024/01/06 11:06:34;;;;;;;2.40;1.80;;;;;;;;;;5035310;28;20230;-80
2024/01/06 11:09:07;;;;;;;1.55;1.45;;;;;;;;;;5035649;28;20294;-81
2024/01/06 11:11:37;;;;;;;1.58;1.48;;;;;;;;;;5036263;28;20250;-81
2024/01/06 11:14:23;;;;;;;3.28;2.30;;;;;;;;;;5035599;28;20614;-82
2024/01/06 11:16:52;;;;;;;2.00;1.90;;;;;;;;;;5035773;28;20650;-80
2024/01/06 11:19:49;;;;;;;2.58;2.28;;;;;;;;;;5035703;28;20646;-81
2024/01/06 11:22:22;;;;;;;4.55;2.38;;;;;;;;;;5035546;28;20633;-81
2024/01/06 11:24:50;;;;;;;3.35;2.38;;;;;;;;;;5035522;28;20198;-81
2024/01/06 11:27:22;;;;;;;2.75;2.15;;;;;;;;;;5035719;28;20260;-81
2024/01/06 11:29:51;;;;;;;2.17;1.80;;;;;;;;;;5035668;28;20229;-81
2024/01/06 11:32:26;;;;;;;2.47;2.05;;;;;;;;;;5035695;28;20237;-81
2024/01/06 11:34:56;;;;;;;2.35;1.85;;;;;;;;;;5036055;28;20325;-80
2024/01/06 11:37:37;;;;;;;2.97;2.67;;;;;;;;;;5033448;28;20256;-81
2024/01/06 11:40:09;;;;;;;2.47;2.15;;;;;;;;;;5035775;28;20210;-81
2024/01/06 11:42:36;;;;;;;2.30;2.10;;;;;;;;;;5035792;28;20216;-81
2024/01/06 11:45:06;;;;;;;3.80;2.67;;;;;;;;;;5036216;28;20214;-81
2024/01/06 11:47:35;;;;;;;3.08;2.33;;;;;;;;;;5035559;28;20233;-81
2024/01/06 11:50:04;;;;;;;2.45;1.65;;;;;;;;;;5035715;28;20299;-81
2024/01/06 11:52:33;;;;;;;3.08;1.77;;;;;;;;;;5036143;28;20209;-81
2024/01/06 11:55:01;;;;;;;1.60;1.50;;;;;;;;;;5035551;28;20225;-81
2024/01/06 11:57:30;;;;;;;2.33;2.13;;;;;;;;;;5035837;28;20226;-82
2024/01/06 11:59:58;;;;;;;2.85;2.10;;;;;;;;;;5035046;28;20218;-81
2024/01/06 12:02:25;;;;;;;2.85;2.05;;;;;;;;;;5032707;28;20221;-81
2024/01/06 12:04:55;;;;;;;4.25;2.70;;;;;;;;;;5035342;28;20236;-82
2024/01/06 12:07:23;;;;;;;2.42;2.15;;;;;;;;;;5033123;28;20225;-81
2024/01/06 12:09:51;;;;;;;3.03;2.22;;;;;;;;;;5035615;28;20257;-82
2024/01/06 12:12:19;;;;;;;3.30;2.35;;;;;;;;;;5036393;28;20902;-81
2024/01/06 12:14:47;;;;;;;2.80;2.60;;;;;;;;;;5032990;28;20226;-81
2024/01/06 12:17:14;;;;;;;3.33;2.92;;;;;;;;;;5035129;28;20238;-82
2024/01/06 12:19:43;;;;;;;5.10;3.72;;;;;;;;;;5035266;28;20298;-82
2024/01/06 12:22:14;;;;;;;11.60;10.50;;;;;;;;;;5035881;28;20213;-82
2024/01/06 12:24:42;;;;;;;5.18;4.68;;;;;;;;;;5035657;28;20213;-81
2024/01/06 12:27:10;;;;;;;5.40;4.00;;;;;;;;;;5035708;28;20230;-82
2024/01/06 12:29:41;;;;;;;4.50;4.10;;;;;;;;;;5035374;28;20203;-81
2024/01/06 12:32:09;;;;;;;24.83;17.42;;;;;;;;;;5034465;28;20278;-81
2024/01/06 12:34:37;;;;;;;19.42;14.13;;;;;;;;;;5039457;28;20298;-81
2024/01/06 12:37:05;;;;;;;7.60;6.68;;;;;;;;;;5038866;28;20232;-82
2024/01/06 12:39:33;;;;;;;4.85;4.40;;;;;;;;;;5039000;28;20686;-81
2024/01/06 12:42:03;;;;;;;6.53;5.53;;;;;;;;;;5038582;28;20210;-81
2024/01/06 12:44:32;;;;;;;4.43;3.85;;;;;;;;;;5038893;28;20206;-81
2024/01/06 12:47:00;;;;;;;3.42;3.13;;;;;;;;;;5039472;28;20241;-81
2024/01/06 12:49:27;;;;;;;5.80;5.20;;;;;;;;;;5038411;28;20202;-81
2024/01/06 12:51:54;;;;;;;5.95;5.35;;;;;;;;;;5037203;28;20226;-81
2024/01/06 12:54:22;;;;;;;2.88;2.58;;;;;;;;;;5033193;28;20298;-82
2024/01/06 12:56:51;;;;;;;4.18;3.83;;;;;;;;;;5036698;28;20230;-82
2024/01/06 12:59:18;;;;;;;8.27;7.20;;;;;;;;;;5037312;28;20233;-81
2024/01/06 13:01:46;;;;;;;4.18;3.40;;;;;;;;;;5034410;28;20210;-80
2024/01/06 13:04:13;;;;;;;4.80;4.40;;;;;;;;;;5036529;28;20212;-81
2024/01/06 13:06:42;;;;;;;3.20;2.90;;;;;;;;;;5036698;28;20230;-81
2024/01/06 13:09:12;;;;;;;8.15;7.35;;;;;;;;;;5036941;28;20678;-81
2024/01/06 13:11:40;;;;;;;3.72;3.42;;;;;;;;;;5037146;28;20253;-80
2024/01/06 13:14:08;;;;;;;3.15;2.95;;;;;;;;;;5034907;28;20214;-81
2024/01/06 13:16:36;;;;;;;4.72;4.40;;;;;;;;;;5036922;28;20799;-80
2024/01/06 13:19:04;;;;;;;2.20;2.00;;;;;;;;;;5036820;28;20229;-81
2024/01/06 13:21:31;;;;;;;2.20;2.00;;;;;;;;;;5036399;28;20249;-81
2024/01/06 13:24:02;;;;;;;2.50;2.30;;;;;;;;;;5036489;28;20242;-81
2024/01/06 13:26:29;;;;;;;5.55;3.03;;;;;;;;;;5036777;28;20252;-80
2024/01/06 13:28:57;;;;;;;4.03;3.63;;;;;;;;;;5037021;28;20229;-81
2024/01/06 13:31:26;;;;;;;3.15;2.95;;;;;;;;;;5036967;28;20210;-81
2024/01/06 13:33:54;;;;;;;2.58;2.38;;;;;;;;;;5036887;28;20205;-80
2024/01/06 13:36:22;;;;;;;2.50;2.30;;;;;;;;;;5035741;28;20228;-80
2024/01/06 13:38:49;;;;;;;1.60;1.50;;;;;;;;;;5036212;28;20289;-79
2024/01/06 13:41:17;;;;;;;1.92;1.45;;;;;;;;;;5036087;28;20301;-80
2024/01/06 13:43:44;;;;;;;1.60;1.50;;;;;;;;;;5036310;28;20222;-79
2024/01/06 13:46:13;;;;;;;1.45;1.35;;;;;;;;;;5035697;28;20202;-79
2024/01/06 13:48:42;;;;;;;2.30;2.13;;;;;;;;;;5036206;28;20274;-80
2024/01/06 13:51:10;;;;;;;3.00;2.65;;;;;;;;;;5036173;28;20211;-80
2024/01/06 13:53:38;;;;;;;1.83;1.73;;;;;;;;;;5035658;28;20209;-79
2024/01/06 13:56:07;;;;;;;1.70;1.60;;;;;;;;;;5035512;28;20312;-80
2024/01/06 13:58:35;;;;;;;2.97;2.70;;;;;;;;;;5035584;28;20222;-80
2024/01/06 14:01:03;;;;;;;5.13;4.63;;;;;;;;;;5036082;28;20607;-79
2024/01/06 14:03:31;;;;;;;4.47;4.07;;;;;;;;;;5036034;28;20665;-81
2024/01/06 14:06:00;;;;;;;3.05;2.85;;;;;;;;;;5035858;28;20298;-81
2024/01/06 14:08:27;;;;;;;1.67;1.58;;;;;;;;;;5035671;28;20226;-80
2024/01/06 14:10:55;;;;;;;1.67;1.58;;;;;;;;;;5035514;28;20210;-80
2024/01/06 14:13:22;;;;;;;1.65;1.50;;;;;;;;;;5032478;28;20861;-81
2024/01/06 14:15:50;;;;;;;1.90;1.80;;;;;;;;;;5034824;28;20305;-81
2024/01/06 14:18:17;;;;;;;2.38;1.83;;;;;;;;;;5035332;28;20245;-81
2024/01/06 14:20:45;;;;;;;2.20;2.00;;;;;;;;;;5035264;28;20207;-81
2024/01/06 14:23:14;;;;;;;1.95;1.85;;;;;;;;;;5035882;28;20672;-81
2024/01/06 14:25:41;;;;;;;1.98;1.88;;;;;;;;;;5035900;28;20199;-81
2024/01/06 14:28:09;;;;;;;2.58;2.03;;;;;;;;;;5035365;28;20232;-81
2024/01/06 14:30:36;;;;;;;1.83;1.73;;;;;;;;;;5035671;28;20293;-80
2024/01/06 14:33:04;;;;;;;2.50;2.25;;;;;;;;;;5034831;28;20693;-80
2024/01/06 14:35:32;;;;;;;1.85;1.75;;;;;;;;;;5036029;28;20226;-80
2024/01/06 14:38:00;;;;;;;1.92;1.77;;;;;;;;;;5035359;28;20644;-80
2024/01/06 14:40:29;;;;;;;2.50;2.30;;;;;;;;;;5034907;28;20270;-80
2024/01/06 14:42:57;;;;;;;1.83;1.73;;;;;;;;;;5035194;28;20199;-81
2024/01/06 14:45:24;;;;;;;4.40;4.00;;;;;;;;;;5032823;28;20206;-80
2024/01/06 14:47:52;;;;;;;3.40;3.10;;;;;;;;;;5035391;28;20221;-80